Time;durP1;ratioP1;P1;durP2;ratioP2;P2;SDS_P1;SDS_P2;PMS_P1;PMS_P2;Temp;Humidity;BMP_temperature;BMP_pressure;BME280_temperature;BME280_humidity;BME280_pressure;Samples;Min_cycle;Max_cycle;Signal;HPM_P1;HPM_P2
2021/03/26 00:05:30;;;;;;;104.13;46.23;;;2.00;99.90;;;;;;5109637;29;20297;-66
2021/03/26 00:08:05;;;;;;;103.00;49.13;;;2.00;99.90;;;;;;5109853;29;20208;-66
2021/03/26 00:10:37;;;;;;;111.00;51.30;;;2.00;99.90;;;;;;5109780;29;20219;-68
2021/03/26 00:13:08;;;;;;;111.37;51.70;;;2.00;99.90;;;;;;5109989;29;20555;-65
2021/03/26 00:19:35;;;;;;;106.70;50.33;;;1.90;99.90;;;;;;5109684;29;20221;-65
2021/03/26 00:22:07;;;;;;;101.23;49.87;;;1.90;99.90;;;;;;5109643;29;20204;-65
2021/03/26 00:24:39;;;;;;;107.13;49.97;;;1.80;99.90;;;;;;5109483;29;20222;-64
2021/03/26 00:27:10;;;;;;;108.13;50.27;;;1.80;99.90;;;;;;5109506;29;20194;-63
2021/03/26 00:29:42;;;;;;;95.83;47.13;;;1.80;99.90;;;;;;5109439;29;20205;-66
2021/03/26 00:32:14;;;;;;;101.47;46.60;;;1.80;99.90;;;;;;5109443;29;20201;-65
2021/03/26 00:34:46;;;;;;;103.53;46.50;;;1.80;99.90;;;;;;5109086;29;20208;-66
2021/03/26 00:37:18;;;;;;;94.43;46.70;;;1.80;99.90;;;;;;5109637;29;20198;-66
2021/03/26 00:39:49;;;;;;;99.27;45.70;;;1.70;99.90;;;;;;5109180;29;20623;-65
2021/03/26 00:42:21;;;;;;;99.83;44.67;;;1.70;99.90;;;;;;5109772;29;20198;-65
2021/03/26 00:44:53;;;;;;;94.10;45.77;;;1.70;99.90;;;;;;5109184;29;20225;-65
2021/03/26 00:47:26;;;;;;;99.43;45.90;;;1.60;99.90;;;;;;5109317;29;20220;-65
2021/03/26 00:49:57;;;;;;;100.93;46.30;;;1.60;99.90;;;;;;5108800;29;20208;-65
2021/03/26 00:52:29;;;;;;;94.00;45.57;;;1.60;99.90;;;;;;5109298;29;20714;-65
2021/03/26 00:55:00;;;;;;;102.70;47.60;;;1.50;99.90;;;;;;5123687;29;20587;-65
2021/03/26 00:57:32;;;;;;;102.43;48.43;;;1.50;99.90;;;;;;5109493;29;20196;-66
2021/03/26 01:00:07;;;;;;;100.80;48.53;;;1.40;99.90;;;;;;5108879;29;20212;-65
2021/03/26 01:02:39;;;;;;;93.33;45.17;;;1.40;99.90;;;;;;5123134;29;20209;-65
2021/03/26 01:05:23;;;;;;;98.13;45.03;;;1.40;99.90;;;;;;5146505;28;20248;-65
2021/03/26 01:07:55;;;;;;;97.33;46.13;;;1.40;99.90;;;;;;5149054;28;20316;-66
2021/03/26 01:10:29;;;;;;;104.03;45.00;;;1.40;99.90;;;;;;5148301;28;20196;-66
2021/03/26 01:13:07;;;;;;;100.37;46.00;;;1.40;99.90;;;;;;5148146;28;20643;-65
2021/03/26 01:15:39;;;;;;;93.07;45.13;;;1.40;99.90;;;;;;5148235;28;20192;-66
2021/03/26 01:18:19;;;;;;;99.00;45.73;;;1.40;99.90;;;;;;5148474;28;20578;-66
2021/03/26 01:20:53;;;;;;;93.10;44.77;;;1.40;99.90;;;;;;5148377;28;20196;-67
2021/03/26 01:23:26;;;;;;;101.97;45.77;;;1.40;99.90;;;;;;5147769;28;20200;-67
2021/03/26 01:25:58;;;;;;;105.13;47.90;;;1.30;99.90;;;;;;5148133;28;20275;-67
2021/03/26 01:28:31;;;;;;;110.23;50.83;;;1.30;99.90;;;;;;5147836;28;20199;-67
2021/03/26 01:31:04;;;;;;;113.10;48.20;;;1.30;99.90;;;;;;5147717;28;20210;-68
2021/03/26 01:33:35;;;;;;;105.77;48.87;;;1.30;99.90;;;;;;5147962;28;20203;-67
2021/03/26 01:36:09;;;;;;;108.07;50.83;;;1.30;99.90;;;;;;5147624;28;20284;-65
2021/03/26 01:38:41;;;;;;;108.30;48.90;;;1.20;99.90;;;;;;5147843;28;20196;-66
2021/03/26 01:41:31;;;;;;;105.27;48.87;;;1.20;99.90;;;;;;5147769;28;20203;-67
2021/03/26 01:44:05;;;;;;;114.37;48.53;;;1.20;99.90;;;;;;5130427;28;20620;-66
2021/03/26 01:46:38;;;;;;;102.47;45.87;;;1.20;99.90;;;;;;5147665;28;20216;-65
2021/03/26 01:49:10;;;;;;;108.57;46.73;;;1.20;99.90;;;;;;5147295;28;20207;-65
2021/03/26 01:51:47;;;;;;;103.80;46.57;;;1.20;99.90;;;;;;5146737;28;20196;-66
2021/03/26 01:54:21;;;;;;;103.20;47.33;;;1.20;99.90;;;;;;5130422;28;20196;-68
2021/03/26 01:56:53;;;;;;;109.60;50.20;;;1.20;99.90;;;;;;5147421;28;20196;-65
2021/03/26 01:59:24;;;;;;;114.33;50.03;;;1.10;99.90;;;;;;5147490;28;20223;-66
2021/03/26 02:02:00;;;;;;;128.70;55.93;;;1.10;99.90;;;;;;5146991;28;20208;-65
2021/03/26 02:04:39;;;;;;;113.57;55.90;;;1.10;99.90;;;;;;5146882;28;20619;-65
2021/03/26 02:07:11;;;;;;;121.67;54.33;;;1.00;99.90;;;;;;5146990;28;20287;-66
2021/03/26 02:09:44;;;;;;;113.67;53.53;;;0.90;99.90;;;;;;5147448;28;20197;-65
2021/03/26 02:12:25;;;;;;;106.83;50.07;;;0.80;99.90;;;;;;5147018;28;20196;-68
2021/03/26 02:15:00;;;;;;;101.77;50.13;;;0.70;99.90;;;;;;5147259;28;20196;-65
2021/03/26 02:17:34;;;;;;;98.17;46.47;;;0.70;99.90;;;;;;5147131;28;20192;-66
2021/03/26 02:20:18;;;;;;;97.20;47.57;;;0.60;99.90;;;;;;5146362;28;20667;-65
2021/03/26 02:22:50;;;;;;;96.37;45.70;;;0.60;99.90;;;;;;5146956;28;20205;-64
2021/03/26 02:25:23;;;;;;;91.40;45.93;;;0.50;99.90;;;;;;5146629;28;20224;-65
2021/03/26 02:27:55;;;;;;;99.20;45.60;;;0.40;99.90;;;;;;5147120;28;20199;-68
2021/03/26 02:34:23;;;;;;;86.20;41.57;;;0.40;99.90;;;;;;5146548;28;20168;-65
2021/03/26 02:37:10;;;;;;;98.77;45.53;;;0.30;99.90;;;;;;5129625;28;20560;-65
2021/03/26 02:39:46;;;;;;;96.27;46.93;;;0.20;99.90;;;;;;5146513;28;20203;-66
2021/03/26 02:42:22;;;;;;;97.80;45.77;;;0.10;99.90;;;;;;5146821;28;20541;-66
2021/03/26 02:45:05;;;;;;;91.87;45.60;;;0.00;99.90;;;;;;5146288;28;20231;-64
2021/03/26 02:51:46;;;;;;;115.93;50.97;;;-0.10;99.90;;;;;;5146483;28;20175;-65
2021/03/26 02:54:29;;;;;;;116.77;52.23;;;-0.20;99.90;;;;;;5129380;28;20318;-64
2021/03/26 02:57:13;;;;;;;113.40;52.13;;;-0.30;99.90;;;;;;5146309;28;20196;-66
2021/03/26 03:00:20;;;;;;;119.73;52.13;;;-0.30;99.90;;;;;;5146303;28;20200;-65
2021/03/26 03:02:55;;;;;;;115.03;49.30;;;-0.30;99.90;;;;;;5143155;28;20204;-65
2021/03/26 03:05:35;;;;;;;111.57;50.30;;;-0.30;99.90;;;;;;5146151;28;20310;-65
2021/03/26 03:08:28;;;;;;;116.27;51.80;;;-0.30;99.90;;;;;;5146174;28;20308;-65
2021/03/26 03:11:14;;;;;;;120.17;56.13;;;-0.40;99.90;;;;;;5146450;28;20200;-65
2021/03/26 03:13:54;;;;;;;117.60;52.13;;;-0.40;99.90;;;;;;5146471;28;20594;-67
2021/03/26 03:20:36;;;;;;;125.80;55.30;;;-0.50;99.90;;;;;;5146155;28;20558;-65
2021/03/26 03:23:22;;;;;;;121.70;53.83;;;-0.50;99.90;;;;;;5129583;28;20216;-66
2021/03/26 03:26:01;;;;;;;115.20;53.17;;;-0.60;99.90;;;;;;5146018;28;20220;-65
2021/03/26 03:28:36;;;;;;;123.20;56.47;;;-0.60;99.90;;;;;;5145960;28;20196;-64
2021/03/26 03:31:26;;;;;;;106.40;52.90;;;-0.60;99.90;;;;;;5146271;28;20207;-66
2021/03/26 03:34:01;;;;;;;110.80;51.67;;;-0.60;99.90;;;;;;5146106;28;20259;-65
2021/03/26 03:36:48;;;;;;;109.80;50.83;;;-0.60;99.90;;;;;;5146449;28;20559;-65
2021/03/26 03:39:52;;;;;;;113.23;50.90;;;-0.60;99.90;;;;;;5129223;28;20199;-66
2021/03/26 03:43:01;;;;;;;116.00;50.20;;;-0.70;99.90;;;;;;5146468;28;20207;-66
2021/03/26 03:45:49;;;;;;;117.93;52.07;;;-0.70;99.90;;;;;;5144652;28;20614;-65
2021/03/26 03:48:32;;;;;;;121.57;51.37;;;-0.80;99.90;;;;;;5146012;28;20196;-66
2021/03/26 03:51:19;;;;;;;116.10;50.90;;;-0.80;99.90;;;;;;5146315;28;20210;-65
2021/03/26 03:54:12;;;;;;;107.87;49.10;;;-0.80;99.90;;;;;;5146472;28;20196;-64
2021/03/26 03:56:54;;;;;;;99.67;44.67;;;-0.80;99.90;;;;;;5146121;28;20196;-65
2021/03/26 03:59:53;;;;;;;97.40;43.50;;;-0.80;99.90;;;;;;5146349;28;20196;-65
2021/03/26 04:06:52;;;;;;;99.43;45.77;;;-0.80;99.90;;;;;;5106174;29;20197;-65
2021/03/26 04:09:31;;;;;;;104.30;45.87;;;-0.80;99.90;;;;;;5106715;29;20566;-65
2021/03/26 04:12:23;;;;;;;95.03;45.37;;;-0.90;99.90;;;;;;5105886;29;20205;-64
2021/03/26 04:15:07;;;;;;;107.40;47.70;;;-0.90;99.90;;;;;;5107461;29;20292;-65
2021/03/26 04:21:37;;;;;;;113.67;49.40;;;-0.90;99.90;;;;;;5109435;29;20543;-64
2021/03/26 04:24:16;;;;;;;106.20;50.33;;;-0.90;99.90;;;;;;5110144;29;20590;-64
2021/03/26 04:26:59;;;;;;;110.43;49.80;;;-0.90;99.90;;;;;;5109207;29;20202;-67
2021/03/26 04:29:52;;;;;;;111.97;50.03;;;-0.90;99.90;;;;;;5109357;29;20208;-65
2021/03/26 04:32:25;;;;;;;109.37;49.27;;;-0.90;99.90;;;;;;5109651;29;20204;-64
2021/03/26 04:34:57;;;;;;;106.10;48.53;;;-0.90;99.90;;;;;;5124215;29;20204;-66
2021/03/26 04:37:36;;;;;;;99.73;48.97;;;-0.90;99.90;;;;;;5109376;29;20595;-65
2021/03/26 04:40:16;;;;;;;105.67;47.67;;;-0.90;99.90;;;;;;5110072;29;20201;-66
2021/03/26 04:43:09;;;;;;;108.17;48.03;;;-0.90;99.90;;;;;;5109396;29;20213;-62
2021/03/26 04:46:11;;;;;;;100.93;48.03;;;-0.90;99.90;;;;;;5109153;29;20247;-63
2021/03/26 04:49:07;;;;;;;99.80;46.77;;;-0.90;99.90;;;;;;5108663;29;20205;-62
2021/03/26 04:51:50;;;;;;;105.07;46.10;;;-0.90;99.90;;;;;;5108717;29;20202;-63
2021/03/26 04:54:39;;;;;;;101.93;46.53;;;-0.90;99.90;;;;;;5109480;29;20204;-64
2021/03/26 04:57:18;;;;;;;108.43;48.00;;;-0.80;99.90;;;;;;5108937;29;20562;-64
2021/03/26 05:00:02;;;;;;;99.37;44.97;;;-0.80;99.90;;;;;;5108831;29;20208;-63
2021/03/26 05:06:55;;;;;;;97.10;44.27;;;-0.70;99.90;;;;;;5147991;28;20282;-62
2021/03/26 05:09:31;;;;;;;96.27;42.70;;;-0.70;99.90;;;;;;5149242;28;20646;-63
2021/03/26 05:12:13;;;;;;;102.90;46.37;;;-0.60;99.90;;;;;;5149164;28;20212;-63
2021/03/26 05:15:06;;;;;;;97.10;45.17;;;-0.50;99.90;;;;;;5148103;28;20193;-62
2021/03/26 05:21:34;;;;;;;102.87;47.83;;;-0.50;99.90;;;;;;5148011;28;20203;-62
2021/03/26 05:24:24;;;;;;;107.90;50.03;;;-0.40;99.90;;;;;;5148146;28;20223;-62
2021/03/26 05:26:56;;;;;;;104.43;49.13;;;-0.30;99.90;;;;;;5147232;28;20199;-63
2021/03/26 05:29:27;;;;;;;103.13;50.50;;;-0.30;99.90;;;;;;5147701;28;20204;-64
2021/03/26 05:32:17;;;;;;;107.27;51.80;;;-0.20;99.90;;;;;;5148146;28;20203;-62
2021/03/26 05:34:51;;;;;;;102.23;48.90;;;-0.10;99.90;;;;;;5147995;28;20207;-62
2021/03/26 05:37:36;;;;;;;103.10;50.00;;;0.00;99.90;;;;;;5147186;28;20647;-62
2021/03/26 05:40:50;;;;;;;100.27;49.70;;;0.10;99.90;;;;;;5147555;28;20196;-62
2021/03/26 05:43:52;;;;;;;95.47;44.87;;;0.20;99.90;;;;;;5105891;29;20204;-63
2021/03/26 05:46:32;;;;;;;92.43;43.20;;;0.40;99.90;;;;;;5090246;29;20205;-63
2021/03/26 05:49:22;;;;;;;88.17;41.30;;;0.50;99.90;;;;;;5105305;29;20217;-65
2021/03/26 05:52:03;;;;;;;99.63;43.30;;;0.70;99.90;;;;;;5105207;29;20198;-62
2021/03/26 05:54:46;;;;;;;88.53;42.03;;;0.80;99.90;;;;;;5105238;29;20216;-63
2021/03/26 05:57:41;;;;;;;91.30;43.97;;;0.90;99.90;;;;;;5105361;29;20200;-64
2021/03/26 06:01:04;;;;;;;86.77;41.30;;;1.10;99.90;;;;;;5105229;28;20205;-64
2021/03/26 06:04:24;;;;;;;86.10;39.83;;;1.30;99.90;;;;;;5085401;29;20246;-66
2021/03/26 06:07:37;;;;;;;80.83;39.50;;;1.40;99.90;;;;;;5085555;29;20563;-67
2021/03/26 06:10:23;;;;;;;90.97;40.77;;;1.60;99.90;;;;;;5027524;29;20232;-63
2021/03/26 06:13:13;;;;;;;82.23;40.37;;;1.80;99.90;;;;;;5027362;29;20196;-64
2021/03/26 06:16:19;;;;;;;82.50;41.40;;;2.00;99.90;;;;;;5027604;29;20220;-63
2021/03/26 06:23:21;;;;;;;78.13;37.30;;;2.60;99.90;;;;;;5027280;29;20629;-64
2021/03/26 06:26:05;;;;;;;70.70;35.23;;;2.90;99.90;;;;;;5026962;29;20282;-67
2021/03/26 06:29:04;;;;;;;69.13;35.07;;;3.20;99.90;;;;;;5011938;29;20208;-65
2021/03/26 06:31:59;;;;;;;76.93;39.37;;;3.50;99.90;;;;;;5027069;29;20208;-65
2021/03/26 06:34:57;;;;;;;82.10;42.10;;;3.70;99.90;;;;;;5026922;29;20323;-62
2021/03/26 06:37:52;;;;;;;82.47;41.17;;;3.80;99.90;;;;;;5020754;29;20295;-68
2021/03/26 06:40:58;;;;;;;77.43;38.53;;;4.00;99.90;;;;;;5052433;29;20388;-67
2021/03/26 06:43:54;;;;;;;40.60;22.37;;;4.30;99.90;;;;;;5065422;29;20195;-67
2021/03/26 06:46:56;;;;;;;43.90;24.03;;;4.60;99.90;;;;;;5082628;28;20228;-66
2021/03/26 06:49:45;;;;;;;37.67;20.03;;;4.90;99.90;;;;;;5146410;28;20196;-68
2021/03/26 06:52:29;;;;;;;31.20;17.70;;;5.50;99.90;;;;;;5146462;28;20196;-67
2021/03/26 06:55:00;;;;;;;28.70;15.27;;;7.10;99.90;;;;;;5129285;28;20233;-67
2021/03/26 06:57:47;;;;;;;25.17;13.60;;;8.80;99.90;;;;;;5146190;28;20337;-68
2021/03/26 07:00:21;;;;;;;25.07;13.00;;;10.40;99.90;;;;;;5146378;28;20196;-68
2021/03/26 07:07:04;;;;;;;26.33;13.47;;;12.90;99.90;;;;;;5141975;28;20757;-68
2021/03/26 07:10:00;;;;;;;27.23;14.33;;;13.70;99.90;;;;;;5142946;28;20207;-65
2021/03/26 07:12:48;;;;;;;26.97;13.83;;;14.10;99.90;;;;;;5143810;28;20616;-66
2021/03/26 07:15:44;;;;;;;23.50;13.30;;;14.60;99.90;;;;;;5138457;28;20668;-66
2021/03/26 07:22:49;;;;;;;27.77;15.70;;;15.90;99.90;;;;;;5145840;28;20183;-66
2021/03/26 07:25:38;;;;;;;27.60;15.02;;;17.00;99.90;;;;;;5145371;28;20227;-66
2021/03/26 07:28:38;;;;;;;26.48;16.10;;;17.60;99.90;;;;;;5128441;28;20251;-66
2021/03/26 07:31:28;;;;;;;30.30;16.10;;;18.30;99.90;;;;;;5145620;28;20196;-68
2021/03/26 07:38:21;;;;;;;25.70;16.85;;;18.90;99.60;;;;;;5145753;28;20623;-67
2021/03/26 07:41:30;;;;;;;26.40;17.02;;;18.20;99.40;;;;;;5128394;28;20209;-67
2021/03/26 07:44:30;;;;;;;36.03;17.60;;;17.70;99.90;;;;;;5144927;28;20632;-66
2021/03/26 07:47:29;;;;;;;37.53;19.53;;;16.90;99.90;;;;;;5143399;28;20208;-67
2021/03/26 07:50:23;;;;;;;33.93;17.97;;;16.00;99.90;;;;;;5145861;28;20288;-70
2021/03/26 07:53:26;;;;;;;30.20;18.33;;;15.20;99.90;;;;;;5148024;28;20311;-68
2021/03/26 07:56:14;;;;;;;30.63;17.80;;;14.40;99.90;;;;;;5148307;28;20686;-69
2021/03/26 07:58:51;;;;;;;36.73;18.43;;;13.90;99.90;;;;;;5147771;28;20197;-68
2021/03/26 08:01:34;;;;;;;36.67;19.20;;;13.60;99.90;;;;;;5148138;28;20192;-69
2021/03/26 08:08:32;;;;;;;30.87;16.67;;;13.40;99.90;;;;;;5144959;28;20599;-65
2021/03/26 08:11:16;;;;;;;36.40;18.50;;;13.30;99.90;;;;;;5148803;28;20235;-66
2021/03/26 08:14:18;;;;;;;33.27;18.20;;;13.30;99.90;;;;;;5148769;28;20655;-66
2021/03/26 08:17:27;;;;;;;33.17;18.70;;;13.20;99.90;;;;;;5148402;28;20204;-67
2021/03/26 08:24:23;;;;;;;30.77;17.20;;;13.30;99.90;;;;;;5148564;28;20686;-65
2021/03/26 08:27:39;;;;;;;31.27;17.30;;;13.30;99.90;;;;;;5148910;28;20204;-67
2021/03/26 08:30:36;;;;;;;34.13;17.87;;;13.30;99.90;;;;;;5148662;28;20192;-69
2021/03/26 08:37:11;;;;;;;32.07;18.77;;;13.40;99.90;;;;;;5148697;28;20175;-65
2021/03/26 08:39:45;;;;;;;31.70;17.50;;;13.60;99.90;;;;;;5148511;28;20541;-65
2021/03/26 08:42:34;;;;;;;30.63;19.27;;;13.50;99.90;;;;;;5139353;28;20218;-64
2021/03/26 08:45:12;;;;;;;34.87;19.43;;;13.60;99.90;;;;;;5129094;28;20219;-68
2021/03/26 08:52:14;;;;;;;30.70;17.43;;;13.50;99.90;;;;;;5106205;29;20229;-70
2021/03/26 08:55:01;;;;;;;33.40;18.83;;;13.50;99.90;;;;;;5106190;29;20213;-69
2021/03/26 08:58:09;;;;;;;27.47;17.57;;;13.50;99.90;;;;;;5106101;29;20744;-69
2021/03/26 09:01:14;;;;;;;32.53;17.17;;;13.50;99.90;;;;;;5105975;29;20215;-69
2021/03/26 09:04:07;;;;;;;28.63;15.90;;;13.60;99.90;;;;;;5105802;29;20208;-65
2021/03/26 09:07:15;;;;;;;28.80;15.60;;;13.60;99.90;;;;;;5105748;29;20242;-69
2021/03/26 09:10:00;;;;;;;24.23;14.63;;;13.70;99.90;;;;;;5105654;29;20442;-63
2021/03/26 09:12:36;;;;;;;20.47;13.20;;;13.80;99.90;;;;;;5105926;29;20590;-64
2021/03/26 09:15:34;;;;;;;23.20;14.13;;;14.00;99.90;;;;;;5105974;29;20207;-54
2021/03/26 09:18:20;;;;;;;22.77;13.40;;;14.20;99.90;;;;;;5105954;29;20205;-69
2021/03/26 09:21:16;;;;;;;23.63;13.23;;;14.20;99.90;;;;;;5104883;29;20665;-65
2021/03/26 09:24:34;;;;;;;21.93;13.57;;;14.30;99.90;;;;;;5105717;29;20273;-67
2021/03/26 09:27:30;;;;;;;25.80;14.07;;;14.30;99.90;;;;;;5061498;29;20572;-63
2021/03/26 09:30:11;;;;;;;24.00;13.37;;;14.20;99.90;;;;;;5066231;29;20226;-66
2021/03/26 09:32:53;;;;;;;25.87;14.37;;;14.10;99.90;;;;;;5066348;29;20191;-71
2021/03/26 09:35:53;;;;;;;27.90;13.33;;;14.00;99.90;;;;;;5050871;29;20199;-69
2021/03/26 09:38:30;;;;;;;35.87;13.77;;;13.90;99.90;;;;;;5064546;29;20218;-68
2021/03/26 09:41:46;;;;;;;24.80;14.90;;;13.70;99.90;;;;;;5066312;29;20210;-66
2021/03/26 09:44:18;;;;;;;22.63;13.83;;;13.50;99.90;;;;;;5066287;29;20213;-75
2021/03/26 09:46:58;;;;;;;23.27;14.20;;;13.50;99.90;;;;;;5062916;29;20199;-66
2021/03/26 09:53:26;;;;;;;24.73;14.47;;;13.50;99.90;;;;;;5065204;29;20642;-69
2021/03/26 09:56:23;;;;;;;24.37;15.03;;;13.60;99.90;;;;;;5065336;29;20660;-69
2021/03/26 09:59:27;;;;;;;29.47;15.40;;;13.60;99.90;;;;;;5065748;29;20679;-71
2021/03/26 10:02:10;;;;;;;24.40;15.00;;;13.70;99.90;;;;;;5077024;28;20204;-69
2021/03/26 10:04:50;;;;;;;24.47;15.03;;;13.80;99.90;;;;;;5147492;28;20216;-72
2021/03/26 10:07:45;;;;;;;24.13;14.80;;;13.90;99.90;;;;;;5147224;28;20242;-67
2021/03/26 10:13:22;;;;;;;26.47;15.20;;;13.80;99.90;;;;;;5145940;28;20219;-74
2021/03/26 10:16:04;;;;;;;21.80;14.33;;;13.90;99.90;;;;;;5148680;28;20284;-71
2021/03/26 10:18:40;;;;;;;23.47;14.50;;;13.90;99.90;;;;;;5148094;28;20198;-70
2021/03/26 10:21:23;;;;;;;21.23;14.30;;;13.90;99.90;;;;;;5148479;28;20211;-66
2021/03/26 10:23:57;;;;;;;23.47;13.97;;;13.80;99.90;;;;;;5148703;28;20272;-72
2021/03/26 10:26:52;;;;;;;20.50;13.73;;;13.70;99.90;;;;;;5147489;28;20266;-68
2021/03/26 10:29:40;;;;;;;19.20;12.70;;;13.60;99.90;;;;;;5148364;28;20192;-70
2021/03/26 10:32:27;;;;;;;19.97;13.57;;;13.60;99.90;;;;;;5148166;28;20200;-71
2021/03/26 10:39:08;;;;;;;23.87;13.50;;;13.80;99.90;;;;;;5148804;28;20239;-73
2021/03/26 10:41:59;;;;;;;23.70;13.43;;;14.10;99.90;;;;;;5148611;28;20196;-71
2021/03/26 10:44:38;;;;;;;23.93;13.23;;;14.20;99.90;;;;;;5147185;28;20223;-73
2021/03/26 10:47:31;;;;;;;20.83;12.60;;;14.20;99.90;;;;;;5146613;28;20644;-73
2021/03/26 10:50:25;;;;;;;19.73;12.83;;;14.10;99.90;;;;;;5145736;28;20283;-74
2021/03/26 10:53:01;;;;;;;20.93;12.97;;;14.10;99.90;;;;;;5146275;28;20196;-72
2021/03/26 10:55:43;;;;;;;19.87;12.23;;;14.20;99.90;;;;;;5145631;28;20193;-73
2021/03/26 10:58:21;;;;;;;20.87;12.83;;;14.30;99.90;;;;;;5146961;28;20228;-70
2021/03/26 11:01:21;;;;;;;18.87;11.93;;;14.40;99.90;;;;;;5129785;28;20192;-72
2021/03/26 11:08:01;;;;;;;27.93;13.83;;;14.60;99.90;;;;;;5146622;28;20298;-71
2021/03/26 11:10:43;;;;;;;23.47;13.07;;;14.60;99.90;;;;;;5146080;28;20231;-73
2021/03/26 11:13:18;;;;;;;21.27;12.87;;;14.50;99.90;;;;;;5146301;28;20741;-71
2021/03/26 11:15:56;;;;;;;21.70;12.77;;;14.60;99.90;;;;;;5146538;28;20199;-72
2021/03/26 11:18:40;;;;;;;20.33;12.30;;;14.90;99.90;;;;;;5146543;28;20537;-69
2021/03/26 11:21:17;;;;;;;22.67;13.40;;;15.20;99.90;;;;;;5146656;28;20237;-72
2021/03/26 11:23:58;;;;;;;19.43;12.03;;;15.30;99.90;;;;;;5146208;28;20199;-69
2021/03/26 11:26:34;;;;;;;18.50;11.60;;;15.30;99.90;;;;;;5149912;28;20314;-68
2021/03/26 11:29:23;;;;;;;16.37;11.73;;;15.30;99.90;;;;;;5150623;28;20222;-74
2021/03/26 11:32:04;;;;;;;20.40;11.57;;;15.40;99.90;;;;;;5133435;28;20294;-75
2021/03/26 11:38:28;;;;;;;20.87;13.23;;;15.60;99.90;;;;;;5150221;28;20172;-71
2021/03/26 11:41:15;;;;;;;17.40;11.90;;;15.70;99.90;;;;;;5149216;28;20300;-73
2021/03/26 11:43:54;;;;;;;17.40;10.97;;;15.70;99.90;;;;;;5149296;28;20251;-69
2021/03/26 11:46:26;;;;;;;19.00;11.93;;;15.80;99.90;;;;;;5148758;28;20298;-62
2021/03/26 11:49:04;;;;;;;16.93;11.60;;;16.00;99.90;;;;;;5149363;28;20196;-64
2021/03/26 11:55:37;;;;;;;19.90;11.90;;;16.10;99.90;;;;;;5147382;28;20326;-63
2021/03/26 11:58:43;;;;;;;20.50;12.63;;;16.00;99.90;;;;;;5149520;28;20196;-64
2021/03/26 12:01:20;;;;;;;16.73;11.37;;;15.80;99.90;;;;;;5087589;29;20221;-73
2021/03/26 12:04:07;;;;;;;17.70;11.70;;;15.70;99.90;;;;;;5087824;29;20345;-72
2021/03/26 12:06:45;;;;;;;16.03;10.90;;;15.80;99.40;;;;;;5071667;29;20333;-71
2021/03/26 12:09:45;;;;;;;19.90;11.80;;;15.80;99.10;;;;;;5087445;29;20701;-71
2021/03/26 12:12:31;;;;;;;20.00;11.83;;;15.70;99.60;;;;;;5071787;29;20206;-71
2021/03/26 12:15:38;;;;;;;18.20;11.90;;;15.80;99.50;;;;;;5087365;29;20191;-68
2021/03/26 12:18:24;;;;;;;19.93;11.90;;;15.90;99.40;;;;;;5086835;29;20254;-69
2021/03/26 12:25:03;;;;;;;19.57;11.83;;;15.90;99.60;;;;;;5087373;29;20588;-64
2021/03/26 12:27:36;;;;;;;18.93;11.93;;;15.90;99.10;;;;;;5086997;29;20512;-67
2021/03/26 12:30:20;;;;;;;24.90;12.80;;;15.80;99.90;;;;;;5087037;29;20610;-68
2021/03/26 12:33:04;;;;;;;23.63;13.63;;;15.90;99.90;;;;;;5087019;29;20298;-70
2021/03/26 12:35:56;;;;;;;21.07;13.10;;;15.80;99.80;;;;;;5086619;29;20226;-68
2021/03/26 12:39:02;;;;;;;20.13;12.47;;;15.70;99.70;;;;;;5127127;28;20208;-69
2021/03/26 12:41:54;;;;;;;17.87;12.17;;;15.60;99.40;;;;;;5147175;28;20212;-68
2021/03/26 12:44:36;;;;;;;19.53;12.50;;;15.60;99.70;;;;;;5147239;28;20211;-71
2021/03/26 12:47:24;;;;;;;18.53;11.10;;;15.50;99.80;;;;;;5146275;28;20209;-75
2021/03/26 12:54:16;;;;;;;17.30;11.47;;;15.60;99.30;;;;;;5146616;28;20694;-73
2021/03/26 12:57:00;;;;;;;19.67;11.00;;;15.60;98.90;;;;;;5145903;28;20254;-70
2021/03/26 12:59:50;;;;;;;17.10;10.60;;;15.70;98.50;;;;;;5148212;28;20192;-72
2021/03/26 13:02:46;;;;;;;19.50;11.07;;;15.70;98.80;;;;;;5131413;28;20549;-68
2021/03/26 13:05:28;;;;;;;20.53;12.53;;;15.90;98.10;;;;;;5148218;28;20315;-72
2021/03/26 13:08:05;;;;;;;16.40;10.50;;;16.10;96.70;;;;;;5148221;28;20246;-70
2021/03/26 13:11:04;;;;;;;15.57;10.03;;;16.20;95.80;;;;;;5147640;28;20224;-68
2021/03/26 13:13:56;;;;;;;20.17;11.70;;;16.50;96.50;;;;;;5147799;28;20196;-68
2021/03/26 13:16:37;;;;;;;17.80;11.10;;;16.40;97.30;;;;;;5147975;28;20200;-66
2021/03/26 13:19:31;;;;;;;17.47;10.83;;;16.40;97.70;;;;;;5148052;28;20287;-67
2021/03/26 13:22:05;;;;;;;17.90;11.20;;;16.40;97.20;;;;;;5147630;28;20206;-68
2021/03/26 13:24:50;;;;;;;20.37;11.70;;;16.40;97.60;;;;;;5147703;28;20211;-69
2021/03/26 13:27:29;;;;;;;22.47;14.07;;;16.40;98.50;;;;;;5147510;28;20196;-66
2021/03/26 13:30:11;;;;;;;25.50;14.33;;;16.50;98.60;;;;;;5146916;28;20192;-69
2021/03/26 13:32:56;;;;;;;22.27;14.93;;;16.40;98.90;;;;;;5130103;28;20203;-70
2021/03/26 13:39:26;;;;;;;27.27;15.70;;;15.80;99.40;;;;;;5146503;28;20215;-67
2021/03/26 13:42:04;;;;;;;25.73;14.37;;;15.80;99.50;;;;;;5145456;28;20200;-67
2021/03/26 13:44:51;;;;;;;25.33;14.87;;;15.70;99.90;;;;;;5146155;28;20237;-69
2021/03/26 13:47:29;;;;;;;27.87;15.37;;;15.50;99.90;;;;;;5145757;28;20200;-66
2021/03/26 13:54:32;;;;;;;25.77;16.23;;;15.40;99.90;;;;;;5143104;28;20255;-66
2021/03/26 13:57:16;;;;;;;30.53;17.77;;;15.10;99.90;;;;;;5146397;28;20295;-64
2021/03/26 14:00:02;;;;;;;28.90;18.00;;;15.00;99.90;;;;;;5147134;28;20196;-66
2021/03/26 14:02:37;;;;;;;35.47;18.07;;;14.90;99.90;;;;;;5144313;28;20211;-67
2021/03/26 14:05:28;;;;;;;31.57;17.80;;;14.80;99.90;;;;;;5146773;28;20287;-65
2021/03/26 14:08:22;;;;;;;30.50;17.13;;;14.70;99.90;;;;;;5146044;28;20232;-68
2021/03/26 14:11:15;;;;;;;28.40;17.17;;;14.70;99.90;;;;;;5130485;28;20196;-66
2021/03/26 14:14:22;;;;;;;29.10;18.33;;;14.60;99.90;;;;;;5147176;28;20578;-69
2021/03/26 14:17:02;;;;;;;33.17;18.30;;;14.60;99.90;;;;;;5144710;28;20215;-67
2021/03/26 14:19:45;;;;;;;33.30;19.53;;;14.60;99.90;;;;;;5143999;28;20204;-66
2021/03/26 14:22:23;;;;;;;30.63;18.03;;;14.60;99.90;;;;;;5145662;28;20207;-67
2021/03/26 14:25:09;;;;;;;28.80;17.10;;;14.60;99.90;;;;;;5146447;28;20226;-65
2021/03/26 14:28:17;;;;;;;26.10;14.80;;;14.60;99.90;;;;;;5146303;28;20547;-69
2021/03/26 14:31:17;;;;;;;26.77;16.33;;;14.60;99.90;;;;;;5145762;28;20611;-69
2021/03/26 14:34:17;;;;;;;31.00;17.53;;;14.60;99.90;;;;;;5146088;28;20243;-67
2021/03/26 14:40:45;;;;;;;23.37;14.73;;;14.60;99.90;;;;;;5145841;28;20589;-68
2021/03/26 14:43:20;;;;;;;31.10;17.20;;;14.60;99.90;;;;;;5146359;28;20550;-66
2021/03/26 14:45:58;;;;;;;28.20;16.03;;;14.60;99.90;;;;;;5146126;28;20575;-67
2021/03/26 14:49:08;;;;;;;30.07;16.67;;;14.60;99.90;;;;;;5131106;28;20199;-66
2021/03/26 14:51:39;;;;;;;29.00;17.80;;;14.70;99.90;;;;;;5145838;28;20714;-69
2021/03/26 14:54:32;;;;;;;36.23;18.43;;;14.70;99.90;;;;;;5128510;28;20192;-66
2021/03/26 14:57:04;;;;;;;28.67;16.33;;;14.80;99.90;;;;;;5145907;28;20568;-67
2021/03/26 15:00:14;;;;;;;33.93;16.40;;;14.90;99.90;;;;;;5145598;28;20247;-67
2021/03/26 15:02:49;;;;;;;31.80;16.63;;;14.90;99.90;;;;;;5133483;28;20212;-67
2021/03/26 15:09:20;;;;;;;33.30;16.30;;;14.90;99.90;;;;;;5140505;28;20238;-69
2021/03/26 15:11:55;;;;;;;26.97;17.10;;;14.90;99.90;;;;;;5145490;28;20188;-70
2021/03/26 15:14:35;;;;;;;30.70;17.37;;;14.90;99.90;;;;;;5145426;28;20196;-68
2021/03/26 15:17:27;;;;;;;28.10;15.43;;;14.90;99.90;;;;;;5145251;28;20203;-69
2021/03/26 15:20:01;;;;;;;27.97;17.07;;;14.90;99.90;;;;;;5128086;28;20193;-71
2021/03/26 15:22:45;;;;;;;35.17;18.13;;;14.80;99.90;;;;;;5145077;28;20208;-68
2021/03/26 15:25:27;;;;;;;32.50;17.90;;;14.80;99.90;;;;;;5145197;28;20223;-67
2021/03/26 15:28:14;;;;;;;29.23;17.10;;;14.60;99.90;;;;;;5145584;28;20196;-71
2021/03/26 15:31:24;;;;;;;33.13;18.43;;;14.40;99.90;;;;;;5145351;28;20733;-65
2021/03/26 15:34:36;;;;;;;32.30;18.30;;;14.20;99.90;;;;;;5103357;29;20209;-68
2021/03/26 15:37:08;;;;;;;32.43;19.33;;;14.00;99.90;;;;;;5101006;29;20688;-67
2021/03/26 15:39:50;;;;;;;37.20;20.10;;;13.80;99.90;;;;;;5103275;29;20282;-69
2021/03/26 15:42:32;;;;;;;37.23;22.70;;;13.60;99.90;;;;;;5103406;29;20205;-64
2021/03/26 15:45:10;;;;;;;45.43;24.03;;;13.50;99.90;;;;;;5101992;29;20239;-70
2021/03/26 15:47:54;;;;;;;39.63;23.20;;;13.30;99.90;;;;;;5101565;29;20197;-72
2021/03/26 15:54:28;;;;;;;42.53;22.93;;;13.20;99.90;;;;;;5103927;29;20657;-72
2021/03/26 15:57:18;;;;;;;40.70;23.97;;;13.10;99.90;;;;;;5103324;29;20201;-68